sensor_id;sensor_type;location;lat;lon;timestamp;pressure;altitude;pressure_sealevel;temperature;humidity
4392;BME280;2210;51.938;8.488;2022-09-09T00:02:26;99804.78;;;15.93;100.00
4392;BME280;2210;51.938;8.488;2022-09-09T00:06:30;99800.91;;;15.94;100.00
4392;BME280;2210;51.938;8.488;2022-09-09T00:10:34;99797.81;;;15.96;100.00
4392;BME280;2210;51.938;8.488;2022-09-09T00:14:54;99791.09;;;16.02;100.00
4392;BME280;2210;51.938;8.488;2022-09-09T00:19:27;99800.41;;;15.87;100.00
4392;BME280;2210;51.938;8.488;2022-09-09T00:23:39;99803.69;;;15.94;100.00
4392;BME280;2210;51.938;8.488;2022-09-09T00:27:47;99795.84;;;15.96;100.00
4392;BME280;2210;51.938;8.488;2022-09-09T00:31:48;99801.16;;;15.98;100.00
4392;BME280;2210;51.938;8.488;2022-09-09T00:35:55;99806.84;;;16.12;100.00
4392;BME280;2210;51.938;8.488;2022-09-09T00:39:59;99807.97;;;16.11;100.00
4392;BME280;2210;51.938;8.488;2022-09-09T00:44:13;99806.97;;;15.96;100.00
4392;BME280;2210;51.938;8.488;2022-09-09T00:48:21;99801.16;;;15.98;100.00
4392;BME280;2210;51.938;8.488;2022-09-09T00:56:31;99791.88;;;16.08;100.00
4392;BME280;2210;51.938;8.488;2022-09-09T01:00:46;99806.34;;;16.05;100.00
4392;BME280;2210;51.938;8.488;2022-09-09T01:04:49;99805.53;;;16.04;100.00
4392;BME280;2210;51.938;8.488;2022-09-09T01:09:19;99805.34;;;15.95;100.00
4392;BME280;2210;51.938;8.488;2022-09-09T01:13:31;99804.78;;;15.93;100.00
4392;BME280;2210;51.938;8.488;2022-09-09T01:17:40;99801.72;;;15.95;100.00
4392;BME280;2210;51.938;8.488;2022-09-09T01:21:51;99793.19;;;15.86;100.00
4392;BME280;2210;51.938;8.488;2022-09-09T01:30:11;99795.00;;;16.01;100.00
4392;BME280;2210;51.938;8.488;2022-09-09T01:34:14;99805.00;;;16.02;100.00
4392;BME280;2210;51.938;8.488;2022-09-09T01:38:15;99787.69;;;16.10;100.00
4392;BME280;2210;51.938;8.488;2022-09-09T01:42:16;99790.19;;;16.12;100.00
4392;BME280;2210;51.938;8.488;2022-09-09T01:46:18;99797.44;;;16.08;100.00
4392;BME280;2210;51.938;8.488;2022-09-09T01:50:20;99792.41;;;16.10;100.00
4392;BME280;2210;51.938;8.488;2022-09-09T01:54:23;99797.66;;;16.11;100.00
4392;BME280;2210;51.938;8.488;2022-09-09T02:06:55;99793.88;;;16.02;100.00
4392;BME280;2210;51.938;8.488;2022-09-09T02:11:11;99791.44;;;15.95;100.00
4392;BME280;2210;51.938;8.488;2022-09-09T02:15:23;99784.00;;;15.85;100.00
4392;BME280;2210;51.938;8.488;2022-09-09T02:19:31;99782.38;;;15.79;100.00
4392;BME280;2210;51.938;8.488;2022-09-09T02:32:44;99793.47;;;15.79;100.00
4392;BME280;2210;51.938;8.488;2022-09-09T02:36:46;99794.03;;;15.81;100.00
4392;BME280;2210;51.938;8.488;2022-09-09T02:40:48;99787.38;;;15.82;100.00
4392;BME280;2210;51.938;8.488;2022-09-09T02:44:48;99794.06;;;15.76;100.00
4392;BME280;2210;51.938;8.488;2022-09-09T02:48:55;99796.81;;;15.81;100.00
4392;BME280;2210;51.938;8.488;2022-09-09T02:53:09;99800.75;;;15.80;100.00
4392;BME280;2210;51.938;8.488;2022-09-09T02:57:12;99789.63;;;15.75;100.00
4392;BME280;2210;51.938;8.488;2022-09-09T03:01:16;99803.00;;;15.68;100.00
4392;BME280;2210;51.938;8.488;2022-09-09T03:05:17;99798.50;;;15.77;100.00
4392;BME280;2210;51.938;8.488;2022-09-09T03:09:17;99805.97;;;15.87;100.00
4392;BME280;2210;51.938;8.488;2022-09-09T03:13:18;99795.47;;;15.74;100.00
4392;BME280;2210;51.938;8.488;2022-09-09T03:17:19;99805.22;;;15.71;100.00
4392;BME280;2210;51.938;8.488;2022-09-09T03:21:19;99805.84;;;15.63;100.00
4392;BME280;2210;51.938;8.488;2022-09-09T03:25:20;99804.16;;;15.67;100.00
4392;BME280;2210;51.938;8.488;2022-09-09T03:29:20;99799.06;;;15.74;100.00
4392;BME280;2210;51.938;8.488;2022-09-09T03:33:21;99806.66;;;15.63;100.00
4392;BME280;2210;51.938;8.488;2022-09-09T03:37:22;99793.25;;;15.71;100.00
4392;BME280;2210;51.938;8.488;2022-09-09T03:41:23;99791.06;;;15.67;100.00
4392;BME280;2210;51.938;8.488;2022-09-09T03:45:23;99785.19;;;15.74;100.00
4392;BME280;2210;51.938;8.488;2022-09-09T03:49:24;99791.81;;;15.83;100.00
4392;BME280;2210;51.938;8.488;2022-09-09T03:53:27;99792.44;;;15.70;100.00
4392;BME280;2210;51.938;8.488;2022-09-09T03:57:27;99777.91;;;15.83;100.00
4392;BME280;2210;51.938;8.488;2022-09-09T04:01:28;99782.06;;;15.86;100.00
4392;BME280;2210;51.938;8.488;2022-09-09T04:05:28;99787.94;;;15.79;100.00
4392;BME280;2210;51.938;8.488;2022-09-09T04:09:28;99794.06;;;15.76;100.00
4392;BME280;2210;51.938;8.488;2022-09-09T04:13:29;99801.50;;;15.91;100.00
4392;BME280;2210;51.938;8.488;2022-09-09T04:17:30;99803.41;;;15.91;100.00
4392;BME280;2210;51.938;8.488;2022-09-09T04:21:30;99816.34;;;15.71;100.00
4392;BME280;2210;51.938;8.488;2022-09-09T04:25:31;99809.16;;;15.65;100.00
4392;BME280;2210;51.938;8.488;2022-09-09T04:29:31;99802.97;;;15.73;100.00
4392;BME280;2210;51.938;8.488;2022-09-09T04:33:31;99795.28;;;15.60;100.00
4392;BME280;2210;51.938;8.488;2022-09-09T04:37:31;99803.34;;;15.61;100.00
4392;BME280;2210;51.938;8.488;2022-09-09T04:41:32;99798.03;;;15.65;100.00
4392;BME280;2210;51.938;8.488;2022-09-09T04:45:32;99803.13;;;15.52;100.00
4392;BME280;2210;51.938;8.488;2022-09-09T04:49:33;99805.41;;;15.45;100.00
4392;BME280;2210;51.938;8.488;2022-09-09T04:53:33;99799.28;;;15.43;100.00
4392;BME280;2210;51.938;8.488;2022-09-09T04:57:34;99804.56;;;15.45;100.00
4392;BME280;2210;51.938;8.488;2022-09-09T05:01:34;99817.91;;;15.43;100.00
4392;BME280;2210;51.938;8.488;2022-09-09T05:05:35;99811.25;;;15.44;100.00
4392;BME280;2210;51.938;8.488;2022-09-09T05:09:35;99804.00;;;15.48;100.00
4392;BME280;2210;51.938;8.488;2022-09-09T05:13:36;99813.16;;;15.48;100.00
4392;BME280;2210;51.938;8.488;2022-09-09T05:17:36;99819.25;;;15.50;100.00
4392;BME280;2210;51.938;8.488;2022-09-09T05:21:36;99821.44;;;15.59;100.00
4392;BME280;2210;51.938;8.488;2022-09-09T05:25:37;99823.38;;;15.58;100.00
4392;BME280;2210;51.938;8.488;2022-09-09T05:29:37;99826.75;;;15.50;100.00
4392;BME280;2210;51.938;8.488;2022-09-09T05:33:39;99818.94;;;15.57;100.00
4392;BME280;2210;51.938;8.488;2022-09-09T05:37:43;99822.84;;;15.56;100.00
4392;BME280;2210;51.938;8.488;2022-09-09T05:41:43;99822.53;;;15.58;100.00
4392;BME280;2210;51.938;8.488;2022-09-09T05:45:44;99820.59;;;15.58;100.00
4392;BME280;2210;51.938;8.488;2022-09-09T05:49:46;99824.97;;;15.70;100.00
4392;BME280;2210;51.938;8.488;2022-09-09T05:53:48;99827.16;;;15.73;100.00
4392;BME280;2210;51.938;8.488;2022-09-09T05:57:49;99831.34;;;15.70;100.00
4392;BME280;2210;51.938;8.488;2022-09-09T06:01:49;99827.75;;;15.70;100.00
4392;BME280;2210;51.938;8.488;2022-09-09T06:05:57;99826.84;;;15.79;100.00
4392;BME280;2210;51.938;8.488;2022-09-09T06:09:57;99818.78;;;15.78;100.00
4392;BME280;2210;51.938;8.488;2022-09-09T06:14:00;99829.06;;;15.82;100.00
4392;BME280;2210;51.938;8.488;2022-09-09T06:18:00;99830.63;;;15.94;100.00
4392;BME280;2210;51.938;8.488;2022-09-09T06:22:00;99832.31;;;16.24;100.00
4392;BME280;2210;51.938;8.488;2022-09-09T06:26:06;99824.25;;;16.28;100.00
4392;BME280;2210;51.938;8.488;2022-09-09T06:30:08;99829.72;;;16.33;100.00
4392;BME280;2210;51.938;8.488;2022-09-09T06:34:09;99823.91;;;16.59;100.00
4392;BME280;2210;51.938;8.488;2022-09-09T06:38:10;99822.84;;;16.79;100.00
4392;BME280;2210;51.938;8.488;2022-09-09T06:42:10;99818.75;;;16.71;100.00
4392;BME280;2210;51.938;8.488;2022-09-09T06:46:17;99825.75;;;16.44;100.00
4392;BME280;2210;51.938;8.488;2022-09-09T06:50:18;99820.69;;;16.46;100.00
4392;BME280;2210;51.938;8.488;2022-09-09T06:54:20;99830.09;;;16.50;100.00
4392;BME280;2210;51.938;8.488;2022-09-09T06:58:22;99837.28;;;16.57;100.00
4392;BME280;2210;51.938;8.488;2022-09-09T07:02:22;99844.53;;;16.58;100.00
4392;BME280;2210;51.938;8.488;2022-09-09T07:06:30;99839.31;;;16.51;100.00
4392;BME280;2210;51.938;8.488;2022-09-09T07:10:31;99841.16;;;16.61;100.00
4392;BME280;2210;51.938;8.488;2022-09-09T07:14:32;99843.88;;;16.66;100.00
4392;BME280;2210;51.938;8.488;2022-09-09T07:18:34;99845.50;;;16.67;100.00
4392;BME280;2210;51.938;8.488;2022-09-09T07:22:34;99845.16;;;16.74;100.00
4392;BME280;2210;51.938;8.488;2022-09-09T07:26:35;99839.84;;;16.77;100.00
4392;BME280;2210;51.938;8.488;2022-09-09T07:30:36;99849.72;;;16.89;100.00
4392;BME280;2210;51.938;8.488;2022-09-09T07:34:36;99846.41;;;16.92;100.00
4392;BME280;2210;51.938;8.488;2022-09-09T07:38:40;99846.41;;;16.92;100.00
4392;BME280;2210;51.938;8.488;2022-09-09T07:42:41;99841.28;;;16.99;100.00
4392;BME280;2210;51.938;8.488;2022-09-09T07:46:41;99850.66;;;17.08;100.00
4392;BME280;2210;51.938;8.488;2022-09-09T07:50:42;99844.94;;;17.18;100.00
4392;BME280;2210;51.938;8.488;2022-09-09T07:54:42;99841.78;;;17.25;100.00
4392;BME280;2210;51.938;8.488;2022-09-09T07:58:45;99844.19;;;17.32;100.00
4392;BME280;2210;51.938;8.488;2022-09-09T08:02:46;99840.22;;;17.38;100.00
4392;BME280;2210;51.938;8.488;2022-09-09T08:06:55;99835.09;;;17.45;100.00
4392;BME280;2210;51.938;8.488;2022-09-09T08:11:09;99839.78;;;17.69;100.00
4392;BME280;2210;51.938;8.488;2022-09-09T08:15:09;99834.34;;;17.97;100.00
4392;BME280;2210;51.938;8.488;2022-09-09T08:19:12;99834.97;;;18.27;100.00
4392;BME280;2210;51.938;8.488;2022-09-09T08:23:12;99842.25;;;18.56;100.00
4392;BME280;2210;51.938;8.488;2022-09-09T08:27:13;99826.03;;;18.58;100.00
4392;BME280;2210;51.938;8.488;2022-09-09T08:31:15;99834.00;;;18.78;100.00
4392;BME280;2210;51.938;8.488;2022-09-09T08:35:16;99837.91;;;18.63;100.00
4392;BME280;2210;51.938;8.488;2022-09-09T08:39:20;99848.44;;;18.52;100.00
4392;BME280;2210;51.938;8.488;2022-09-09T08:43:21;99853.78;;;18.35;100.00
4392;BME280;2210;51.938;8.488;2022-09-09T08:47:39;99860.22;;;18.35;100.00
4392;BME280;2210;51.938;8.488;2022-09-09T08:51:47;99860.84;;;18.46;100.00
4392;BME280;2210;51.938;8.488;2022-09-09T08:55:53;99861.91;;;18.50;100.00
4392;BME280;2210;51.938;8.488;2022-09-09T08:59:55;99864.41;;;18.66;100.00
4392;BME280;2210;51.938;8.488;2022-09-09T09:08:12;99868.28;;;18.37;100.00
4392;BME280;2210;51.938;8.488;2022-09-09T09:12:23;99879.13;;;18.39;100.00
4392;BME280;2210;51.938;8.488;2022-09-09T09:16:29;99874.69;;;18.51;100.00
4392;BME280;2210;51.938;8.488;2022-09-09T09:20:46;99878.66;;;18.50;100.00
4392;BME280;2210;51.938;8.488;2022-09-09T09:28:58;99865.03;;;18.63;100.00
4392;BME280;2210;51.938;8.488;2022-09-09T09:33:05;99868.69;;;19.05;98.64
4392;BME280;2210;51.938;8.488;2022-09-09T09:37:17;99858.25;;;19.11;97.61
4392;BME280;2210;51.938;8.488;2022-09-09T09:41:40;99849.09;;;19.33;96.07
4392;BME280;2210;51.938;8.488;2022-09-09T09:45:42;99852.50;;;19.44;93.11
4392;BME280;2210;51.938;8.488;2022-09-09T09:49:58;99846.63;;;19.45;87.43
4392;BME280;2210;51.938;8.488;2022-09-09T09:54:38;99858.28;;;19.98;88.40
4392;BME280;2210;51.938;8.488;2022-09-09T10:02:46;99863.38;;;19.96;84.01
4392;BME280;2210;51.938;8.488;2022-09-09T10:06:47;99860.69;;;19.91;83.67
4392;BME280;2210;51.938;8.488;2022-09-09T10:15:04;99859.53;;;20.37;78.12
4392;BME280;2210;51.938;8.488;2022-09-09T10:19:15;99847.41;;;20.50;78.65
4392;BME280;2210;51.938;8.488;2022-09-09T10:36:07;99864.13;;;20.10;77.94
4392;BME280;2210;51.938;8.488;2022-09-09T10:40:18;99861.03;;;19.75;81.04
4392;BME280;2210;51.938;8.488;2022-09-09T10:53:15;99836.22;;;20.19;81.26
4392;BME280;2210;51.938;8.488;2022-09-09T10:57:27;99837.50;;;20.44;79.11
4392;BME280;2210;51.938;8.488;2022-09-09T11:01:40;99834.19;;;20.42;77.71
4392;BME280;2210;51.938;8.488;2022-09-09T11:05:43;99830.59;;;20.42;76.44
4392;BME280;2210;51.938;8.488;2022-09-09T11:09:50;99836.25;;;20.28;77.97
4392;BME280;2210;51.938;8.488;2022-09-09T11:14:20;99830.88;;;20.40;78.63
4392;BME280;2210;51.938;8.488;2022-09-09T11:18:23;99826.34;;;20.76;78.36
4392;BME280;2210;51.938;8.488;2022-09-09T11:22:48;99827.81;;;20.50;78.28
4392;BME280;2210;51.938;8.488;2022-09-09T11:26:55;99822.44;;;20.94;76.01
4392;BME280;2210;51.938;8.488;2022-09-09T11:31:21;99818.75;;;21.34;72.86
4392;BME280;2210;51.938;8.488;2022-09-09T11:35:33;99826.47;;;21.28;71.48
4392;BME280;2210;51.938;8.488;2022-09-09T11:43:52;99836.03;;;20.47;74.84
4392;BME280;2210;51.938;8.488;2022-09-09T11:47:55;99847.47;;;20.05;89.89
4392;BME280;2210;51.938;8.488;2022-09-09T11:51:55;99851.47;;;19.90;100.00
4392;BME280;2210;51.938;8.488;2022-09-09T11:56:05;99842.25;;;20.12;100.00
4392;BME280;2210;51.938;8.488;2022-09-09T12:00:06;99842.03;;;20.31;100.00
4392;BME280;2210;51.938;8.488;2022-09-09T12:04:39;99833.84;;;20.35;94.67
4392;BME280;2210;51.938;8.488;2022-09-09T12:08:48;99830.16;;;20.26;90.39
4392;BME280;2210;51.938;8.488;2022-09-09T12:12:50;99829.16;;;20.53;87.30
4392;BME280;2210;51.938;8.488;2022-09-09T12:16:51;99818.41;;;20.78;81.13
4392;BME280;2210;51.938;8.488;2022-09-09T12:21:07;99817.94;;;20.84;74.92
4392;BME280;2210;51.938;8.488;2022-09-09T12:29:39;99817.72;;;21.21;73.56
4392;BME280;2210;51.938;8.488;2022-09-09T12:33:45;99824.84;;;21.36;72.42
4392;BME280;2210;51.938;8.488;2022-09-09T12:37:56;99814.66;;;21.49;71.23
4392;BME280;2210;51.938;8.488;2022-09-09T12:41:58;99808.22;;;21.66;70.10
4392;BME280;2210;51.938;8.488;2022-09-09T12:46:06;99801.63;;;21.62;70.08
4392;BME280;2210;51.938;8.488;2022-09-09T12:50:18;99799.94;;;21.43;70.11
4392;BME280;2210;51.938;8.488;2022-09-09T12:54:19;99800.25;;;21.33;69.08
4392;BME280;2210;51.938;8.488;2022-09-09T12:58:19;99802.25;;;21.41;68.07
4392;BME280;2210;51.938;8.488;2022-09-09T13:02:22;99810.13;;;21.21;70.81
4392;BME280;2210;51.938;8.488;2022-09-09T13:06:31;99804.50;;;21.04;70.24
4392;BME280;2210;51.938;8.488;2022-09-09T13:10:43;99807.59;;;20.94;71.18
4392;BME280;2210;51.938;8.488;2022-09-09T13:14:52;99806.94;;;20.88;71.81
4392;BME280;2210;51.938;8.488;2022-09-09T13:18:54;99809.78;;;20.65;68.68
4392;BME280;2210;51.938;8.488;2022-09-09T13:22:55;99803.13;;;20.52;76.08
4392;BME280;2210;51.938;8.488;2022-09-09T13:27:00;99801.94;;;20.76;76.55
4392;BME280;2210;51.938;8.488;2022-09-09T13:31:18;99797.53;;;20.93;70.20
4392;BME280;2210;51.938;8.488;2022-09-09T13:35:23;99776.47;;;21.04;72.67
4392;BME280;2210;51.938;8.488;2022-09-09T13:39:24;99771.75;;;21.39;67.14
4392;BME280;2210;51.938;8.488;2022-09-09T13:43:25;99786.41;;;21.45;68.22
4392;BME280;2210;51.938;8.488;2022-09-09T13:47:36;99776.53;;;21.48;66.10
4392;BME280;2210;51.938;8.488;2022-09-09T13:51:42;99776.53;;;21.56;63.71
4392;BME280;2210;51.938;8.488;2022-09-09T13:55:46;99773.25;;;21.54;65.25
4392;BME280;2210;51.938;8.488;2022-09-09T13:59:47;99773.06;;;21.51;64.33
4392;BME280;2210;51.938;8.488;2022-09-09T14:03:47;99767.47;;;21.68;64.37
4392;BME280;2210;51.938;8.488;2022-09-09T14:07:48;99757.03;;;21.86;63.63
4392;BME280;2210;51.938;8.488;2022-09-09T14:11:49;99769.63;;;21.80;63.09
4392;BME280;2210;51.938;8.488;2022-09-09T14:15:49;99773.75;;;21.65;63.18
4392;BME280;2210;51.938;8.488;2022-09-09T14:19:49;99773.75;;;21.56;64.59
4392;BME280;2210;51.938;8.488;2022-09-09T14:23:50;99763.00;;;21.41;65.03
4392;BME280;2210;51.938;8.488;2022-09-09T14:27:51;99764.31;;;21.26;62.09
4392;BME280;2210;51.938;8.488;2022-09-09T14:31:51;99765.94;;;21.18;62.53
4392;BME280;2210;51.938;8.488;2022-09-09T14:36:02;99764.94;;;21.14;62.86
4392;BME280;2210;51.938;8.488;2022-09-09T14:40:03;99762.81;;;21.11;62.10
4392;BME280;2210;51.938;8.488;2022-09-09T14:44:04;99768.56;;;21.06;62.38
4392;BME280;2210;51.938;8.488;2022-09-09T14:48:04;99765.28;;;21.04;64.70
4392;BME280;2210;51.938;8.488;2022-09-09T14:52:04;99779.75;;;20.97;65.38
4392;BME280;2210;51.938;8.488;2022-09-09T14:56:06;99775.41;;;20.74;73.71
4392;BME280;2210;51.938;8.488;2022-09-09T15:00:08;99768.19;;;20.50;79.76
4392;BME280;2210;51.938;8.488;2022-09-09T15:04:11;99759.00;;;20.58;81.47
4392;BME280;2210;51.938;8.488;2022-09-09T15:08:12;99767.56;;;20.62;80.36
4392;BME280;2210;51.938;8.488;2022-09-09T15:12:12;99773.88;;;20.67;78.77
4392;BME280;2210;51.938;8.488;2022-09-09T15:16:16;99768.19;;;20.50;79.05
4392;BME280;2210;51.938;8.488;2022-09-09T15:20:17;99774.28;;;20.43;78.75
4392;BME280;2210;51.938;8.488;2022-09-09T15:24:17;99776.22;;;20.43;79.18
4392;BME280;2210;51.938;8.488;2022-09-09T15:28:17;99770.28;;;20.44;78.58
4392;BME280;2210;51.938;8.488;2022-09-09T15:32:18;99776.06;;;20.39;75.84
4392;BME280;2210;51.938;8.488;2022-09-09T15:36:21;99765.34;;;20.41;75.91
4392;BME280;2210;51.938;8.488;2022-09-09T15:40:22;99760.59;;;20.42;74.48
4392;BME280;2210;51.938;8.488;2022-09-09T15:44:22;99766.34;;;20.45;72.24
4392;BME280;2210;51.938;8.488;2022-09-09T15:48:31;99754.00;;;20.46;69.99
4392;BME280;2210;51.938;8.488;2022-09-09T15:52:34;99762.41;;;20.46;68.79
4392;BME280;2210;51.938;8.488;2022-09-09T15:56:35;99765.34;;;20.41;70.18
4392;BME280;2210;51.938;8.488;2022-09-09T16:00:35;99757.47;;;20.43;70.73
4392;BME280;2210;51.938;8.488;2022-09-09T16:04:35;99764.66;;;20.35;72.70
4392;BME280;2210;51.938;8.488;2022-09-09T16:08:38;99775.31;;;20.25;74.07
4392;BME280;2210;51.938;8.488;2022-09-09T16:12:39;99777.63;;;20.23;74.30
4392;BME280;2210;51.938;8.488;2022-09-09T16:16:40;99790.13;;;20.25;75.23
4392;BME280;2210;51.938;8.488;2022-09-09T16:20:53;99781.25;;;20.23;80.48
4392;BME280;2210;51.938;8.488;2022-09-09T16:24:53;99786.66;;;20.19;82.57
4392;BME280;2210;51.938;8.488;2022-09-09T16:28:54;99786.03;;;20.23;81.39
4392;BME280;2210;51.938;8.488;2022-09-09T16:32:54;99781.69;;;20.16;77.32
4392;BME280;2210;51.938;8.488;2022-09-09T16:36:54;99788.06;;;20.08;76.95
4392;BME280;2210;51.938;8.488;2022-09-09T16:40:59;99793.78;;;20.03;77.20
4392;BME280;2210;51.938;8.488;2022-09-09T16:45:00;99813.50;;;19.98;77.09
4392;BME280;2210;51.938;8.488;2022-09-09T16:49:01;99829.28;;;19.94;77.78
4392;BME280;2210;51.938;8.488;2022-09-09T16:53:02;99838.03;;;19.78;77.59
4392;BME280;2210;51.938;8.488;2022-09-09T16:57:06;99848.22;;;19.60;80.03
4392;BME280;2210;51.938;8.488;2022-09-09T17:01:06;99857.56;;;19.55;83.14
4392;BME280;2210;51.938;8.488;2022-09-09T17:05:07;99855.59;;;19.42;91.62
4392;BME280;2210;51.938;8.488;2022-09-09T17:09:10;99854.81;;;19.00;97.83
4392;BME280;2210;51.938;8.488;2022-09-09T17:13:10;99846.00;;;18.79;98.23
4392;BME280;2210;51.938;8.488;2022-09-09T17:17:12;99831.94;;;18.70;100.00
4392;BME280;2210;51.938;8.488;2022-09-09T17:21:15;99824.38;;;18.57;100.00
4392;BME280;2210;51.938;8.488;2022-09-09T17:25:15;99837.03;;;18.35;100.00
4392;BME280;2210;51.938;8.488;2022-09-09T17:29:17;99853.78;;;18.35;100.00
4392;BME280;2210;51.938;8.488;2022-09-09T17:33:17;99865.31;;;18.14;100.00
4392;BME280;2210;51.938;8.488;2022-09-09T17:37:17;99871.31;;;18.22;100.00
4392;BME280;2210;51.938;8.488;2022-09-09T17:41:23;99884.72;;;18.06;100.00
4392;BME280;2210;51.938;8.488;2022-09-09T17:45:23;99878.16;;;17.96;100.00
4392;BME280;2210;51.938;8.488;2022-09-09T17:49:25;99881.91;;;17.86;100.00
4392;BME280;2210;51.938;8.488;2022-09-09T17:53:25;99890.66;;;17.99;100.00
4392;BME280;2210;51.938;8.488;2022-09-09T17:57:26;99885.53;;;18.06;100.00
4392;BME280;2210;51.938;8.488;2022-09-09T18:01:30;99897.88;;;18.00;100.00
4392;BME280;2210;51.938;8.488;2022-09-09T18:05:31;99896.97;;;17.85;100.00
4392;BME280;2210;51.938;8.488;2022-09-09T18:09:31;99890.19;;;17.73;100.00
4392;BME280;2210;51.938;8.488;2022-09-09T18:13:32;99886.44;;;17.82;100.00
4392;BME280;2210;51.938;8.488;2022-09-09T18:17:32;99889.72;;;17.84;100.00
4392;BME280;2210;51.938;8.488;2022-09-09T18:21:33;99892.81;;;17.83;100.00
4392;BME280;2210;51.938;8.488;2022-09-09T18:25:40;99896.34;;;17.89;100.00
4392;BME280;2210;51.938;8.488;2022-09-09T18:29:41;99899.34;;;17.97;100.00
4392;BME280;2210;51.938;8.488;2022-09-09T18:33:43;99909.75;;;17.67;100.00
4392;BME280;2210;51.938;8.488;2022-09-09T18:37:46;99903.97;;;17.83;100.00
4392;BME280;2210;51.938;8.488;2022-09-09T18:41:49;99906.47;;;17.84;100.00
4392;BME280;2210;51.938;8.488;2022-09-09T18:45:50;99903.81;;;17.74;100.00
4392;BME280;2210;51.938;8.488;2022-09-09T18:49:51;99908.25;;;17.75;100.00
4392;BME280;2210;51.938;8.488;2022-09-09T18:53:56;99918.00;;;17.78;100.00
4392;BME280;2210;51.938;8.488;2022-09-09T18:57:57;99909.09;;;17.57;100.00
4392;BME280;2210;51.938;8.488;2022-09-09T19:01:58;99915.50;;;17.57;100.00
4392;BME280;2210;51.938;8.488;2022-09-09T19:10:14;99921.84;;;17.39;100.00
4392;BME280;2210;51.938;8.488;2022-09-09T19:14:15;99923.16;;;17.46;100.00
4392;BME280;2210;51.938;8.488;2022-09-09T19:18:18;99920.72;;;17.40;100.00
4392;BME280;2210;51.938;8.488;2022-09-09T19:22:19;99921.19;;;17.47;100.00
4392;BME280;2210;51.938;8.488;2022-09-09T19:26:20;99922.09;;;17.42;100.00
4392;BME280;2210;51.938;8.488;2022-09-09T19:30:23;99919.16;;;17.09;100.00
4392;BME280;2210;51.938;8.488;2022-09-09T19:34:25;99922.88;;;17.24;100.00
4392;BME280;2210;51.938;8.488;2022-09-09T19:38:25;99919.72;;;17.06;100.00
4392;BME280;2210;51.938;8.488;2022-09-09T19:42:26;99917.91;;;17.21;100.00
4392;BME280;2210;51.938;8.488;2022-09-09T19:46:31;99930.31;;;17.09;100.00
4392;BME280;2210;51.938;8.488;2022-09-09T19:50:34;99918.91;;;17.06;100.00
4392;BME280;2210;51.938;8.488;2022-09-09T19:54:36;99931.56;;;16.93;100.00
4392;BME280;2210;51.938;8.488;2022-09-09T19:58:38;99925.94;;;16.98;100.00
4392;BME280;2210;51.938;8.488;2022-09-09T20:02:39;99936.28;;;16.97;100.00
4392;BME280;2210;51.938;8.488;2022-09-09T20:06:41;99931.00;;;16.96;100.00
4392;BME280;2210;51.938;8.488;2022-09-09T20:10:51;99937.66;;;17.00;100.00
4392;BME280;2210;51.938;8.488;2022-09-09T20:14:52;99944.16;;;16.90;100.00
4392;BME280;2210;51.938;8.488;2022-09-09T20:18:56;99945.00;;;16.85;100.00
4392;BME280;2210;51.938;8.488;2022-09-09T20:22:57;99944.69;;;16.92;100.00
4392;BME280;2210;51.938;8.488;2022-09-09T20:26:58;99946.03;;;16.95;100.00
4392;BME280;2210;51.938;8.488;2022-09-09T20:31:05;99943.78;;;16.97;100.00
4392;BME280;2210;51.938;8.488;2022-09-09T20:35:06;99938.22;;;16.97;100.00
4392;BME280;2210;51.938;8.488;2022-09-09T20:39:15;99950.97;;;17.03;100.00
4392;BME280;2210;51.938;8.488;2022-09-09T20:43:15;99947.72;;;16.96;100.00
4392;BME280;2210;51.938;8.488;2022-09-09T20:47:16;99947.72;;;16.96;100.00
4392;BME280;2210;51.938;8.488;2022-09-09T20:51:17;99946.03;;;16.95;100.00
4392;BME280;2210;51.938;8.488;2022-09-09T20:55:18;99948.88;;;16.84;100.00
4392;BME280;2210;51.938;8.488;2022-09-09T20:59:24;99946.34;;;16.88;100.00
4392;BME280;2210;51.938;8.488;2022-09-09T21:03:27;99947.81;;;16.80;100.00
4392;BME280;2210;51.938;8.488;2022-09-09T21:07:28;99955.09;;;16.76;100.00
4392;BME280;2210;51.938;8.488;2022-09-09T21:11:29;99948.41;;;16.77;100.00
4392;BME280;2210;51.938;8.488;2022-09-09T21:15:29;99954.66;;;16.64;100.00
4392;BME280;2210;51.938;8.488;2022-09-09T21:19:29;99950.66;;;16.46;100.00
4392;BME280;2210;51.938;8.488;2022-09-09T21:23:32;99949.25;;;16.48;100.00
4392;BME280;2210;51.938;8.488;2022-09-09T21:27:32;99953.16;;;16.42;100.00
4392;BME280;2210;51.938;8.488;2022-09-09T21:31:33;99957.28;;;16.50;100.00
4392;BME280;2210;51.938;8.488;2022-09-09T21:35:34;99956.09;;;16.56;100.00
4392;BME280;2210;51.938;8.488;2022-09-09T21:39:34;99958.97;;;16.51;100.00
4392;BME280;2210;51.938;8.488;2022-09-09T21:43:35;99966.50;;;16.45;100.00
4392;BME280;2210;51.938;8.488;2022-09-09T21:47:35;99952.53;;;16.50;100.00
4392;BME280;2210;51.938;8.488;2022-09-09T21:51:35;99960.09;;;16.45;100.00
4392;BME280;2210;51.938;8.488;2022-09-09T21:55:38;99955.72;;;16.39;100.00
4392;BME280;2210;51.938;8.488;2022-09-09T21:59:39;99949.00;;;16.40;100.00
4392;BME280;2210;51.938;8.488;2022-09-09T22:03:41;99957.59;;;16.48;100.00
4392;BME280;2210;51.938;8.488;2022-09-09T22:07:42;99957.13;;;16.36;100.00
4392;BME280;2210;51.938;8.488;2022-09-09T22:11:42;99969.16;;;16.26;100.00
4392;BME280;2210;51.938;8.488;2022-09-09T22:15:43;99967.38;;;16.41;100.00
4392;BME280;2210;51.938;8.488;2022-09-09T22:19:45;99970.75;;;16.38;100.00
4392;BME280;2210;51.938;8.488;2022-09-09T22:23:54;99970.50;;;16.34;100.00
4392;BME280;2210;51.938;8.488;2022-09-09T22:27:54;99966.03;;;16.33;100.00
4392;BME280;2210;51.938;8.488;2022-09-09T22:31:55;99980.03;;;16.23;100.00
4392;BME280;2210;51.938;8.488;2022-09-09T22:35:55;99974.66;;;16.37;100.00
4392;BME280;2210;51.938;8.488;2022-09-09T22:39:56;99986.34;;;16.33;100.00
4392;BME280;2210;51.938;8.488;2022-09-09T22:43:56;99986.91;;;16.30;100.00
4392;BME280;2210;51.938;8.488;2022-09-09T22:47:58;99989.66;;;16.35;100.00
4392;BME280;2210;51.938;8.488;2022-09-09T22:52:00;99991.13;;;16.28;100.00
4392;BME280;2210;51.938;8.488;2022-09-09T22:56:03;99985.28;;;16.29;100.00
4392;BME280;2210;51.938;8.488;2022-09-09T23:00:04;99982.53;;;16.24;100.00
4392;BME280;2210;51.938;8.488;2022-09-09T23:04:08;99986.75;;;16.16;100.00
4392;BME280;2210;51.938;8.488;2022-09-09T23:08:08;99986.75;;;16.16;100.00
4392;BME280;2210;51.938;8.488;2022-09-09T23:12:09;99987.91;;;16.10;100.00